Time;durP1;ratioP1;P1;durP2;ratioP2;P2;SDS_P1;SDS_P2;PMS_P1;PMS_P2;Temp;Humidity;BMP_temperature;BMP_pressure;BME280_temperature;BME280_humidity;BME280_pressure;Samples;Min_cycle;Max_cycle;Signal;HPM_P1;HPM_P2
2022/06/02 00:05:17;;;;;;;1.95;1.08;;;;;;;15.94;50.47;97774.84;10098180;29;20045;-80
2022/06/02 00:10:44;;;;;;;4.28;0.90;;;;;;;15.93;50.46;97778.28;10073063;29;20492;-79
2022/06/02 00:16:07;;;;;;;4.15;1.10;;;;;;;15.84;50.54;97791.25;10098318;29;20057;-79
2022/06/02 00:21:36;;;;;;;2.47;1.10;;;;;;;15.77;50.65;97800.03;10085574;29;20049;-79
2022/06/02 00:27:33;;;;;;;2.33;0.98;;;;;;;15.72;51.26;97799.81;10073962;29;20053;-80
2022/06/02 00:33:09;;;;;;;2.50;1.13;;;;;;;15.63;51.00;97802.88;10100261;29;20061;-79
2022/06/02 00:38:38;;;;;;;2.42;1.10;;;;;;;15.59;51.14;97816.72;10100154;29;20049;-79
2022/06/02 00:44:21;;;;;;;1.75;1.00;;;;;;;15.46;51.54;97824.56;10074661;29;20057;-79
2022/06/02 00:49:51;;;;;;;1.92;0.90;;;;;;;15.35;50.96;97836.69;10087557;29;20056;-79
2022/06/02 01:01:30;;;;;;;2.22;1.15;;;;;;;15.17;51.37;97849.81;10091827;29;20069;-79
2022/06/02 01:14:51;;;;;;;3.22;1.10;;;;;;;14.83;51.66;97857.16;10106416;29;20042;-79
2022/06/02 01:29:50;;;;;;;2.95;1.00;;;;;;;14.65;52.01;97859.00;10025821;29;20134;-79
2022/06/02 01:36:07;;;;;;;1.98;0.90;;;;;;;14.67;52.28;97873.16;10008836;29;20144;-79
2022/06/02 01:41:34;;;;;;;2.97;1.27;;;;;;;14.63;51.98;97851.22;10019619;29;20062;-79
2022/06/02 01:47:35;;;;;;;1.85;0.90;;;;;;;14.67;51.99;97873.91;10025268;29;20133;-79
2022/06/02 01:53:43;;;;;;;2.30;1.02;;;;;;;14.71;52.22;97890.25;10092218;29;20056;-79
2022/06/02 02:08:03;;;;;;;2.17;1.00;;;;;;;14.46;52.44;97917.00;10142360;29;20054;-79
2022/06/02 02:22:15;;;;;;;2.25;0.88;;;;;;;14.27;51.88;97928.53;10110926;29;20049;-79
2022/06/02 02:29:36;;;;;;;2.75;1.10;;;;;;;14.24;52.35;97941.75;10026326;29;20054;-79
2022/06/02 02:35:18;;;;;;;1.80;1.13;;;;;;;14.27;52.06;97942.59;10004830;29;20062;-78
2022/06/02 02:40:48;;;;;;;2.00;1.00;;;;;;;14.30;52.21;97944.19;9990358;29;20069;-79
2022/06/02 02:46:14;;;;;;;3.30;0.80;;;;;;;14.32;52.17;97944.28;9991182;29;20370;-79
2022/06/02 02:51:58;;;;;;;1.85;0.93;;;;;;;14.36;52.16;97946.56;10003509;29;20140;-79
2022/06/02 02:58:24;;;;;;;3.17;0.90;;;;;;;14.42;52.00;97958.88;10048651;29;20063;-79
2022/06/02 03:20:37;;;;;;;3.63;1.20;;;;;;;14.19;51.74;97961.81;9954192;29;20066;-79
2022/06/02 03:26:43;;;;;;;1.92;0.80;;;;;;;14.03;52.15;97979.16;9953393;29;20054;-79
2022/06/02 03:32:08;;;;;;;3.55;0.82;;;;;;;14.00;52.02;97980.41;9952240;29;20514;-79
2022/06/02 03:45:28;;;;;;;1.10;0.60;;;;;;;13.96;52.10;97980.16;10037726;29;20045;-76
2022/06/02 03:51:17;;;;;;;1.83;0.82;;;;;;;14.12;52.25;97982.44;10107070;29;20045;-77
2022/06/02 03:57:04;;;;;;;1.95;0.70;;;;;;;14.22;51.86;97992.16;10109631;29;20417;-77
2022/06/02 04:02:36;;;;;;;1.88;0.80;;;;;;;14.41;51.68;97991.13;10078130;29;20057;-76
2022/06/02 04:08:08;;;;;;;1.90;1.20;;;;;;;14.58;51.19;97992.81;10099985;29;20076;-76
2022/06/02 04:55:03;;;;;;;1.15;0.85;;;;;;;15.70;48.65;98050.16;9269237;27;20052;-76
2022/06/02 05:01:22;;;;;;;2.20;0.95;;;;;;;15.83;47.99;98048.75;10072970;29;20057;-76
2022/06/02 05:07:07;;;;;;;3.35;0.73;;;;;;;16.46;48.59;98048.34;10074226;29;20057;-76
2022/06/02 05:12:34;;;;;;;4.18;0.60;;;;;;;17.11;46.56;98054.31;10091404;29;20053;-76
2022/06/02 05:18:22;;;;;;;1.65;0.80;;;;;;;17.32;44.70;98065.19;10079172;29;20053;-76
2022/06/02 05:24:11;;;;;;;4.43;0.70;;;;;;;17.39;45.48;98069.00;10090888;29;20064;-76
2022/06/02 05:29:38;;;;;;;2.28;0.65;;;;;;;17.86;44.82;98065.50;10090690;29;20076;-78
2022/06/02 05:35:14;;;;;;;2.25;0.70;;;;;;;18.07;43.71;98053.72;10103403;29;20109;-76
2022/06/02 05:40:38;;;;;;;1.73;0.70;;;;;;;18.24;43.56;98074.91;10104175;29;20053;-75
2022/06/02 05:46:21;;;;;;;1.80;0.73;;;;;;;18.95;42.07;98080.69;10078233;29;20084;-75
2022/06/02 05:52:06;;;;;;;2.10;0.47;;;;;;;20.10;39.14;98086.47;10076065;29;20065;-76
2022/06/02 05:57:35;;;;;;;4.90;0.77;;;;;;;20.72;39.56;98089.28;10103490;29;20049;-73
2022/06/02 06:03:07;;;;;;;1.67;0.50;;;;;;;21.93;37.24;98091.63;10091332;29;20484;-74
2022/06/02 06:08:54;;;;;;;1.08;0.50;;;;;;;23.62;33.38;98093.03;10088140;29;20076;-73
2022/06/02 06:14:36;;;;;;;0.93;0.30;;;;;;;26.51;26.64;98097.69;10072477;29;20060;-74
2022/06/02 06:20:29;;;;;;;2.90;1.55;;;;;;;28.97;27.39;98106.94;10072584;29;20444;-73
2022/06/02 06:26:09;;;;;;;0.83;0.53;;;;;;;31.13;21.08;98111.84;10095016;29;20080;-75
2022/06/02 06:31:51;;;;;;;1.35;0.40;;;;;;;32.81;21.26;98109.19;10087264;29;20064;-74
2022/06/02 06:37:18;;;;;;;2.37;0.50;;;;;;;33.90;19.52;98119.66;10076797;29;20056;-76
2022/06/02 06:42:57;;;;;;;1.30;0.32;;;;;;;34.50;17.06;98132.16;10101325;29;20598;-76
2022/06/02 06:48:47;;;;;;;1.45;0.32;;;;;;;35.02;16.55;98140.41;10100570;29;20057;-76
2022/06/02 06:54:25;;;;;;;1.10;0.32;;;;;;;34.85;16.46;98132.09;10070976;29;20061;-76
2022/06/02 07:00:07;;;;;;;0.73;0.30;;;;;;;35.28;14.74;98145.56;10074668;29;20057;-76
2022/06/02 07:05:42;;;;;;;1.23;0.30;;;;;;;37.60;14.03;98155.50;10062293;29;20113;-77
2022/06/02 07:16:56;;;;;;;1.67;0.40;;;;;;;42.47;10.53;98144.13;10076069;29;20063;-79
2022/06/02 07:22:32;;;;;;;1.48;0.30;;;;;;;44.29;8.18;98151.88;10060807;29;20068;-78
2022/06/02 07:28:07;;;;;;;2.25;0.70;;;;;;;46.74;7.04;98145.66;10072675;29;20448;-79
2022/06/02 07:33:56;;;;;;;0.88;0.32;;;;;;;49.19;5.52;98145.03;10071900;29;20057;-79
2022/06/02 07:39:32;;;;;;;2.85;0.20;;;;;;;50.35;4.91;98143.28;10072013;29;20080;-79
2022/06/02 07:45:03;;;;;;;1.02;0.20;;;;;;;51.49;4.15;98144.84;10084783;29;20049;-79
2022/06/02 07:50:31;;;;;;;1.77;0.30;;;;;;;52.20;4.30;98152.25;10084801;29;20057;-79
2022/06/02 07:55:52;;;;;;;3.78;0.32;;;;;;;53.22;3.34;98148.91;10071298;29;20060;-79
2022/06/02 08:01:17;;;;;;;2.03;0.20;;;;;;;52.47;3.29;98154.06;10082964;29;20412;-80
2022/06/02 08:06:56;;;;;;;1.50;0.98;;;;;;;52.40;3.22;98147.31;10083818;29;20112;-79
2022/06/02 08:12:25;;;;;;;1.45;0.30;;;;;;;52.13;3.56;98140.28;10078868;29;20415;-78
2022/06/02 08:18:13;;;;;;;1.75;0.32;;;;;;;53.40;3.11;98150.06;10081334;29;20156;-78
2022/06/02 08:24:27;;;;;;;4.13;0.60;;;;;;;53.10;2.87;98150.84;10087124;29;20118;-79
2022/06/02 08:30:27;;;;;;;4.15;0.45;;;;;;;54.30;2.63;98146.72;10111400;29;20056;-78
2022/06/02 08:36:11;;;;;;;2.72;0.40;;;;;;;54.94;2.23;98155.66;10121431;29;20052;-78
2022/06/02 08:42:10;;;;;;;1.45;0.50;;;;;;;54.92;2.00;98165.53;10110494;29;20057;-78
2022/06/02 08:47:46;;;;;;;2.42;0.50;;;;;;;55.83;1.84;98160.06;10129415;29;20061;-78
2022/06/02 08:53:45;;;;;;;3.33;0.63;;;;;;;55.34;1.85;98175.16;10129494;29;20084;-77
2022/06/02 08:59:29;;;;;;;1.88;0.80;;;;;;;55.73;1.84;98176.16;10129002;29;20514;-77
2022/06/02 09:05:21;;;;;;;1.27;0.98;;;;;;;55.89;1.17;98171.34;10111635;29;20068;-78
2022/06/02 09:11:01;;;;;;;4.57;0.80;;;;;;;53.23;2.60;98180.09;10099317;29;20060;-78
2022/06/02 09:16:24;;;;;;;2.78;1.00;;;;;;;54.51;2.41;98172.84;10115804;29;20490;-77
2022/06/02 09:22:15;;;;;;;4.13;1.17;;;;;;;55.65;1.08;98172.47;10128576;29;20112;-79
2022/06/02 09:27:55;;;;;;;2.47;1.60;;;;;;;55.94;1.74;98172.97;10101851;29;20156;-77
2022/06/02 09:33:47;;;;;;;1.65;0.70;;;;;;;52.07;2.84;98177.25;10129494;29;20057;-78
2022/06/02 09:39:10;;;;;;;2.88;0.20;;;;;;;43.13;5.44;98176.41;10097628;29;20052;-80
2022/06/02 09:45:09;;;;;;;1.85;0.30;;;;;;;43.37;7.09;98172.09;10090653;29;20060;-78
2022/06/02 09:50:55;;;;;;;2.63;0.50;;;;;;;42.56;7.09;98179.59;10099250;29;20495;-78
2022/06/02 09:57:00;;;;;;;0.82;0.22;;;;;;;48.50;5.24;98167.75;10126995;29;20487;-79
2022/06/02 10:03:19;;;;;;;1.50;0.40;;;;;;;52.12;3.33;98189.50;10126904;29;20099;-80
2022/06/02 10:08:53;;;;;;;;;;;;;;;49.61;4.23;98186.78;10114221;29;20112;-78
2022/06/02 10:14:55;;;;;;;0.98;0.30;;;;;;;52.65;2.84;98181.38;10127280;29;20366;-79
2022/06/02 10:20:27;;;;;;;1.75;0.50;;;;;;;51.97;2.90;98180.50;10103643;29;20140;-78
2022/06/02 10:26:11;;;;;;;0.82;0.82;;;;;;;53.62;2.10;98179.19;10113943;29;20060;-77
2022/06/02 10:31:55;;;;;;;1.80;1.70;;;;;;;55.29;1.69;98173.47;10125906;29;20056;-79
2022/06/02 10:44:09;;;;;;;3.50;3.20;;;;;;;54.09;2.01;98177.38;10125640;29;20103;-77
2022/06/02 10:50:18;;;;;;;2.03;1.60;;;;;;;52.79;2.60;98171.03;10106822;29;20087;-79
2022/06/02 10:56:08;;;;;;;1.75;0.30;;;;;;;53.55;1.40;98170.16;10097294;29;20067;-78
2022/06/02 11:01:58;;;;;;;1.20;0.20;;;;;;;47.26;4.23;98169.19;10090418;29;20059;-77
2022/06/02 11:07:38;;;;;;;0.98;0.10;;;;;;;41.99;6.29;98165.06;10091802;29;20057;-77
2022/06/02 11:13:17;;;;;;;2.00;0.30;;;;;;;38.55;9.09;98160.09;10099081;29;20057;-77
2022/06/02 11:19:07;;;;;;;1.15;0.25;;;;;;;36.81;10.12;98155.88;10101350;29;20068;-76
2022/06/02 11:25:08;;;;;;;0.77;0.20;;;;;;;35.35;10.85;98161.34;10104523;29;20431;-76
2022/06/02 11:30:51;;;;;;;2.03;0.30;;;;;;;34.26;12.30;98147.13;10068194;29;20079;-76
2022/06/02 11:36:18;;;;;;;0.80;0.20;;;;;;;33.66;12.34;98138.88;10100937;29;20052;-75
2022/06/02 11:42:25;;;;;;;0.70;0.20;;;;;;;32.29;13.90;98148.19;10102292;29;20049;-79
2022/06/02 11:47:49;;;;;;;1.17;0.20;;;;;;;32.05;14.02;98135.50;10076980;29;20109;-79
2022/06/02 11:53:22;;;;;;;3.65;0.20;;;;;;;32.14;14.29;98133.22;10089104;29;20120;-81
2022/06/02 11:58:46;;;;;;;2.33;0.20;;;;;;;32.68;13.75;98146.22;10100810;29;20048;-79
2022/06/02 12:04:16;;;;;;;1.75;0.30;;;;;;;32.24;13.67;98133.09;10098956;29;20504;-79
2022/06/02 12:09:52;;;;;;;0.80;0.20;;;;;;;31.69;14.80;98150.31;10101412;29;20061;-79
2022/06/02 12:15:48;;;;;;;1.05;0.30;;;;;;;31.71;14.71;98156.75;10099583;29;20049;-79
2022/06/02 12:21:22;;;;;;;2.15;0.20;;;;;;;31.53;14.92;98148.28;10098779;29;20049;-79
2022/06/02 12:27:27;;;;;;;1.92;0.20;;;;;;;30.99;15.15;98141.53;10074011;29;20099;-79
2022/06/02 12:33:19;;;;;;;1.00;0.30;;;;;;;29.66;15.74;98141.38;10077119;29;20077;-79
2022/06/02 12:39:09;;;;;;;0.68;0.15;;;;;;;29.33;16.70;98138.53;10081917;29;20061;-79
2022/06/02 12:44:57;;;;;;;1.20;0.30;;;;;;;29.35;16.70;98138.53;10077102;29;20064;-78
2022/06/02 12:50:34;;;;;;;2.63;0.20;;;;;;;28.59;16.65;98139.19;10087248;29;20064;-80
2022/06/02 12:56:24;;;;;;;1.40;0.15;;;;;;;28.35;17.47;98119.72;10108305;29;20059;-80
2022/06/02 13:02:05;;;;;;;2.15;0.30;;;;;;;28.56;17.14;98129.81;10106110;29;20053;-78
2022/06/02 13:07:33;;;;;;;2.47;0.20;;;;;;;28.91;17.11;98135.66;10074653;29;20053;-78
2022/06/02 13:13:25;;;;;;;0.60;0.28;;;;;;;28.91;17.70;98121.28;10070082;29;20079;-78
2022/06/02 13:19:04;;;;;;;1.17;0.20;;;;;;;29.47;16.93;98119.84;10082144;29;20404;-78
2022/06/02 13:24:53;;;;;;;1.05;0.20;;;;;;;30.00;16.63;98128.34;10096385;29;20122;-78
2022/06/02 13:30:48;;;;;;;0.82;0.13;;;;;;;30.26;16.63;98134.00;10084840;29;20081;-78
2022/06/02 13:36:20;;;;;;;0.55;0.20;;;;;;;29.70;16.84;98126.28;10076851;29;20143;-78
2022/06/02 13:41:51;;;;;;;0.73;0.10;;;;;;;29.54;16.46;98118.41;10076208;29;20411;-78
2022/06/02 13:47:33;;;;;;;1.60;0.20;;;;;;;29.25;17.09;98111.97;10076271;29;20052;-78
2022/06/02 13:53:13;;;;;;;0.80;0.17;;;;;;;28.52;17.16;98113.31;10125523;29;20416;-77
2022/06/02 13:58:46;;;;;;;4.78;0.20;;;;;;;28.67;17.70;98096.84;10126863;29;20440;-79
2022/06/02 14:04:19;;;;;;;0.98;0.10;;;;;;;28.57;17.91;98101.81;10126809;29;20419;-79
2022/06/02 14:10:17;;;;;;;0.90;0.10;;;;;;;28.81;17.32;98113.34;10126887;29;20041;-79
2022/06/02 14:16:13;;;;;;;3.10;0.30;;;;;;;29.09;17.41;98112.69;10113809;29;20116;-79
2022/06/02 14:21:44;;;;;;;0.85;0.20;;;;;;;28.85;17.42;98109.75;10099467;29;20052;-79
2022/06/02 14:27:33;;;;;;;2.50;0.20;;;;;;;28.86;17.70;98114.09;10113387;29;20511;-79
2022/06/02 14:33:13;;;;;;;1.20;0.30;;;;;;;29.08;17.42;98111.97;10102322;29;20395;-75
2022/06/02 14:39:08;;;;;;;1.88;0.20;;;;;;;28.63;17.58;98096.81;10125654;29;20542;-78
2022/06/02 14:44:50;;;;;;;0.50;0.20;;;;;;;28.35;18.08;98106.09;10113791;29;20057;-77
2022/06/02 14:50:31;;;;;;;0.98;0.20;;;;;;;28.20;18.18;98093.84;10111949;29;20116;-78
2022/06/02 14:56:07;;;;;;;3.72;0.30;;;;;;;28.20;18.27;98078.78;10099462;29;20419;-79
2022/06/02 15:02:06;;;;;;;4.05;0.28;;;;;;;27.93;17.99;98077.97;10125093;29;20419;-76
2022/06/02 15:07:49;;;;;;;0.43;0.13;;;;;;;27.86;18.28;98079.34;10102932;29;20053;-75
2022/06/02 15:13:19;;;;;;;1.75;0.20;;;;;;;27.76;18.55;98088.63;10124501;29;20060;-75
2022/06/02 15:19:02;;;;;;;2.00;0.20;;;;;;;27.24;18.12;98089.03;10111726;29;20064;-80
2022/06/02 15:25:19;;;;;;;3.80;0.20;;;;;;;27.13;18.90;98087.53;10115627;29;20105;-78
2022/06/02 15:31:01;;;;;;;1.23;0.20;;;;;;;27.37;19.15;98064.75;10123909;29;20065;-82
2022/06/02 15:36:34;;;;;;;1.75;0.20;;;;;;;26.84;19.16;98058.63;10097668;29;20088;-76
2022/06/02 15:42:15;;;;;;;1.67;0.20;;;;;;;26.63;20.03;98071.31;10090176;29;20045;-76
2022/06/02 15:47:45;;;;;;;1.42;0.13;;;;;;;26.68;20.08;98061.34;10098487;29;20408;-79
2022/06/02 15:53:32;;;;;;;0.68;0.20;;;;;;;26.74;19.70;98064.28;10110696;29;20488;-77
2022/06/02 15:59:02;;;;;;;0.90;0.30;;;;;;;26.91;19.85;98060.09;10111980;29;20064;-77
2022/06/02 16:04:35;;;;;;;1.05;0.20;;;;;;;27.03;20.00;98071.69;10123576;29;20056;-79
2022/06/02 16:16:22;;;;;;;1.63;0.10;;;;;;;26.65;19.92;98074.22;10136344;29;20061;-77
2022/06/02 16:21:46;;;;;;;4.70;0.20;;;;;;;26.68;19.82;98081.41;10109282;29;20063;-78
2022/06/02 16:27:52;;;;;;;0.60;0.20;;;;;;;26.61;19.89;98074.88;10122816;29;20108;-76
2022/06/02 16:33:29;;;;;;;0.50;0.10;;;;;;;26.71;20.20;98077.84;10111176;29;20083;-80
2022/06/02 16:39:00;;;;;;;1.35;0.17;;;;;;;26.67;20.15;98091.41;10121620;29;20053;-79
2022/06/02 16:44:49;;;;;;;2.17;0.22;;;;;;;26.54;20.19;98090.59;10121977;29;20057;-80
2022/06/02 16:50:41;;;;;;;0.73;0.20;;;;;;;26.36;19.91;98085.38;10121462;29;20501;-79
2022/06/02 16:56:03;;;;;;;1.52;0.20;;;;;;;26.02;20.34;98099.28;10121562;29;20048;-76
2022/06/02 17:01:49;;;;;;;1.33;0.20;;;;;;;26.00;20.73;98096.38;10108362;29;20061;-80
2022/06/02 17:07:23;;;;;;;2.17;0.20;;;;;;;25.94;20.50;98106.31;10114426;29;20111;-83
2022/06/02 17:12:54;;;;;;;1.75;0.32;;;;;;;25.95;20.83;98112.75;10116220;29;20400;-86
2022/06/02 17:18:28;;;;;;;1.67;0.20;;;;;;;25.86;20.71;98105.50;10103405;29;20052;-86
2022/06/02 17:24:07;;;;;;;2.83;0.20;;;;;;;25.54;20.99;98108.63;10115521;29;20064;-81
2022/06/02 17:29:52;;;;;;;0.70;0.30;;;;;;;25.13;21.51;98128.03;10115767;29;20049;-84
2022/06/02 17:35:23;;;;;;;2.85;0.20;;;;;;;24.63;21.74;98117.16;10128098;29;20514;-82
2022/06/02 17:40:44;;;;;;;1.20;0.22;;;;;;;24.47;21.90;98125.41;10128088;29;20061;-82
2022/06/02 17:46:13;;;;;;;0.75;0.20;;;;;;;24.16;22.15;98121.97;10128097;29;20530;-83
2022/06/02 17:51:53;;;;;;;2.22;0.20;;;;;;;23.90;22.47;98133.53;10127067;29;20127;-82
2022/06/02 17:57:49;;;;;;;1.52;0.25;;;;;;;23.73;23.17;98136.72;10127387;29;20053;-81
2022/06/02 18:03:25;;;;;;;1.67;0.20;;;;;;;23.50;23.14;98136.19;10127101;29;20108;-79
2022/06/02 18:08:50;;;;;;;0.90;0.20;;;;;;;23.33;23.11;98142.91;10114026;29;20482;-80
2022/06/02 18:14:40;;;;;;;1.65;0.20;;;;;;;23.38;23.54;98144.47;10114193;29;20053;-80
2022/06/02 18:20:13;;;;;;;2.03;0.38;;;;;;;23.40;23.54;98145.25;10113647;29;20060;-80
2022/06/02 18:25:40;;;;;;;1.30;0.30;;;;;;;23.36;23.39;98147.28;10101799;29;20057;-81
2022/06/02 18:31:31;;;;;;;1.00;0.30;;;;;;;22.86;24.06;98153.16;10126114;29;20074;-80
2022/06/02 18:37:23;;;;;;;0.88;0.20;;;;;;;22.43;25.04;98154.13;10113133;29;20056;-79
2022/06/02 18:42:59;;;;;;;3.40;0.20;;;;;;;22.13;25.35;98159.69;10125769;29;20087;-80
2022/06/02 18:48:41;;;;;;;1.17;0.22;;;;;;;22.00;26.08;98173.53;10125244;29;20048;-80
2022/06/02 18:54:14;;;;;;;2.00;0.23;;;;;;;21.55;26.43;98182.81;10125151;29;20079;-75
2022/06/02 18:59:50;;;;;;;0.70;0.30;;;;;;;21.25;28.53;98196.75;10139261;29;20056;-76
2022/06/02 19:05:44;;;;;;;0.73;0.28;;;;;;;21.09;27.82;98193.38;10124867;29;20073;-77
2022/06/02 19:17:04;;;;;;;0.80;0.30;;;;;;;20.52;28.66;98217.66;10113739;29;20514;-78
2022/06/02 19:22:43;;;;;;;1.65;0.30;;;;;;;20.39;29.82;98229.19;10124324;29;20052;-80
2022/06/02 19:28:10;;;;;;;1.33;0.30;;;;;;;20.27;29.45;98221.72;10123227;29;20068;-77
2022/06/02 19:33:55;;;;;;;0.70;0.20;;;;;;;20.15;30.32;98235.41;10110674;29;20415;-77
2022/06/02 19:39:29;;;;;;;1.05;0.40;;;;;;;20.04;30.83;98241.34;10113272;29;20060;-78
2022/06/02 19:44:58;;;;;;;3.92;0.50;;;;;;;19.81;31.73;98242.59;10110466;29;20049;-77
2022/06/02 19:50:50;;;;;;;2.05;0.40;;;;;;;19.66;32.54;98250.53;10098136;29;20056;-81
2022/06/02 19:56:22;;;;;;;1.98;0.47;;;;;;;19.49;32.32;98253.31;10120467;29;20072;-77
2022/06/02 20:01:48;;;;;;;3.13;0.40;;;;;;;19.33;32.24;98259.78;10097293;29;20064;-79
2022/06/02 20:07:21;;;;;;;2.53;0.40;;;;;;;19.13;34.05;98254.00;10090082;29;20044;-79
2022/06/02 20:13:01;;;;;;;;;;;;;;;18.96;33.97;98262.44;10088757;29;20101;-79
2022/06/02 20:18:34;;;;;;;0.90;0.50;;;;;;;18.82;33.52;98263.31;10088117;29;20346;-76
2022/06/02 20:24:02;;;;;;;0.77;0.30;;;;;;;18.72;34.10;98262.88;10099894;29;20504;-76
2022/06/02 20:29:52;;;;;;;1.25;0.50;;;;;;;18.51;34.55;98260.47;10089032;29;20057;-77
2022/06/02 20:35:19;;;;;;;1.60;0.30;;;;;;;18.34;34.57;98270.34;10086368;29;20052;-75
2022/06/02 20:41:03;;;;;;;1.92;0.38;;;;;;;18.17;34.83;98268.13;10106391;29;20060;-75
2022/06/02 20:46:56;;;;;;;0.82;0.30;;;;;;;18.06;35.49;98266.94;10120661;29;20048;-77
2022/06/02 20:52:48;;;;;;;3.17;0.75;;;;;;;17.93;35.89;98262.78;10097670;29;20558;-77
2022/06/02 20:58:12;;;;;;;1.83;0.55;;;;;;;17.89;35.68;98268.25;10066562;29;20496;-77
2022/06/02 21:03:53;;;;;;;1.98;0.55;;;;;;;17.92;36.84;98264.16;10120591;29;20060;-77
2022/06/02 21:09:23;;;;;;;1.80;0.70;;;;;;;17.91;36.60;98265.53;10097148;29;20454;-77
2022/06/02 21:14:48;;;;;;;1.88;0.70;;;;;;;17.79;36.44;98269.88;10096440;29;20431;-78
2022/06/02 21:20:36;;;;;;;1.40;0.70;;;;;;;17.66;36.58;98280.56;10108715;29;20064;-78
2022/06/02 21:26:15;;;;;;;2.13;0.75;;;;;;;17.59;37.25;98295.00;10098615;29;20451;-77
2022/06/02 21:31:37;;;;;;;1.70;0.65;;;;;;;17.50;37.42;98296.72;10109210;29;20059;-77
2022/06/02 21:37:02;;;;;;;1.83;0.75;;;;;;;17.44;37.56;98307.69;10108476;29;20052;-78
2022/06/02 21:42:28;;;;;;;2.00;0.70;;;;;;;17.39;37.80;98306.78;10095042;29;20056;-77
2022/06/02 21:48:04;;;;;;;3.00;0.63;;;;;;;17.33;38.13;98309.28;10095485;29;20053;-77
2022/06/02 21:53:31;;;;;;;1.02;0.50;;;;;;;17.20;37.86;98318.50;10126110;29;20065;-78
2022/06/02 21:58:59;;;;;;;1.35;0.50;;;;;;;17.12;38.15;98320.91;10127571;29;20060;-78
2022/06/02 22:04:34;;;;;;;0.88;0.50;;;;;;;16.95;38.66;98319.34;10114794;29;20500;-78
2022/06/02 22:10:00;;;;;;;2.13;0.50;;;;;;;16.86;38.74;98315.34;10114605;29;20067;-77
2022/06/02 22:15:34;;;;;;;2.38;0.52;;;;;;;16.88;38.95;98320.38;10101584;29;20514;-78
2022/06/02 22:21:03;;;;;;;1.02;0.50;;;;;;;16.76;38.87;98331.00;10101463;29;20052;-77
2022/06/02 22:26:28;;;;;;;1.10;0.50;;;;;;;16.75;38.84;98324.66;10113556;29;20076;-79
2022/06/02 22:32:17;;;;;;;1.00;0.50;;;;;;;16.72;39.58;98322.34;10101005;29;20487;-79
2022/06/02 22:38:02;;;;;;;1.13;0.70;;;;;;;16.70;39.37;98311.72;10126252;29;20053;-79
2022/06/02 22:43:49;;;;;;;0.60;0.50;;;;;;;16.64;39.45;98313.44;10115181;29;20079;-78
2022/06/02 22:49:28;;;;;;;1.77;0.50;;;;;;;16.54;39.56;98316.47;10128534;29;20081;-78
2022/06/02 22:55:10;;;;;;;0.70;0.43;;;;;;;16.47;39.28;98315.38;10112922;29;20488;-79
2022/06/02 23:01:05;;;;;;;0.90;0.40;;;;;;;16.38;39.95;98324.75;10114821;29;20408;-79
2022/06/02 23:06:37;;;;;;;1.25;0.50;;;;;;;16.33;39.73;98325.91;10111989;29;20177;-77
2022/06/02 23:12:39;;;;;;;0.82;0.50;;;;;;;16.38;40.25;98321.22;10114265;29;20056;-77
2022/06/02 23:18:08;;;;;;;1.40;0.50;;;;;;;16.31;40.79;98320.16;10124585;29;20108;-77
2022/06/02 23:23:56;;;;;;;0.82;0.40;;;;;;;16.25;40.55;98314.19;10099210;29;20495;-77
2022/06/02 23:29:22;;;;;;;0.90;0.50;;;;;;;16.20;40.49;98313.22;10099499;29;20395;-77
2022/06/02 23:35:01;;;;;;;1.13;0.45;;;;;;;16.14;40.70;98307.28;10124353;29;20060;-77
2022/06/02 23:40:59;;;;;;;1.20;0.50;;;;;;;16.06;40.83;98308.94;10123988;29;20067;-77
2022/06/02 23:47:14;;;;;;;3.53;1.10;;;;;;;15.98;41.53;98303.56;10124531;29;20066;-77
2022/06/02 23:53:07;;;;;;;1.10;0.40;;;;;;;15.87;41.29;98302.28;10090247;29;20056;-77
2022/06/02 23:59:12;;;;;;;0.82;0.40;;;;;;;15.84;41.70;98289.44;10120751;29;20064;-77
